sensor_id;sensor_type;location;lat;lon;timestamp;P1;durP1;ratioP1;P2;durP2;ratioP2
16669;SDS011;8448;52.034;5.158;2022-09-11T00:01:45;18.95;;;14.70;;
16669;SDS011;8448;52.034;5.158;2022-09-11T00:04:13;17.23;;;13.60;;
16669;SDS011;8448;52.034;5.158;2022-09-11T00:06:40;19.15;;;15.15;;
16669;SDS011;8448;52.034;5.158;2022-09-11T00:09:07;19.10;;;15.27;;
16669;SDS011;8448;52.034;5.158;2022-09-11T00:11:37;20.35;;;16.00;;
16669;SDS011;8448;52.034;5.158;2022-09-11T00:14:05;19.70;;;14.82;;
16669;SDS011;8448;52.034;5.158;2022-09-11T00:16:36;19.85;;;15.48;;
16669;SDS011;8448;52.034;5.158;2022-09-11T00:19:06;17.52;;;14.50;;
16669;SDS011;8448;52.034;5.158;2022-09-11T00:21:35;19.75;;;15.00;;
16669;SDS011;8448;52.034;5.158;2022-09-11T00:24:02;18.23;;;14.73;;
16669;SDS011;8448;52.034;5.158;2022-09-11T00:26:30;19.02;;;14.98;;
16669;SDS011;8448;52.034;5.158;2022-09-11T00:28:57;21.00;;;16.13;;
16669;SDS011;8448;52.034;5.158;2022-09-11T00:31:26;18.52;;;15.27;;
16669;SDS011;8448;52.034;5.158;2022-09-11T00:33:55;22.02;;;16.73;;
16669;SDS011;8448;52.034;5.158;2022-09-11T00:36:23;22.05;;;16.63;;
16669;SDS011;8448;52.034;5.158;2022-09-11T00:38:52;22.10;;;16.40;;
16669;SDS011;8448;52.034;5.158;2022-09-11T00:41:20;22.08;;;16.50;;
16669;SDS011;8448;52.034;5.158;2022-09-11T00:43:59;22.30;;;18.17;;
16669;SDS011;8448;52.034;5.158;2022-09-11T00:46:30;20.30;;;16.02;;
16669;SDS011;8448;52.034;5.158;2022-09-11T00:49:03;20.63;;;16.35;;
16669;SDS011;8448;52.034;5.158;2022-09-11T00:51:40;21.92;;;16.42;;
16669;SDS011;8448;52.034;5.158;2022-09-11T00:54:07;23.40;;;17.17;;
16669;SDS011;8448;52.034;5.158;2022-09-11T00:56:36;25.25;;;17.63;;
16669;SDS011;8448;52.034;5.158;2022-09-11T00:59:03;22.60;;;16.65;;
16669;SDS011;8448;52.034;5.158;2022-09-11T01:01:32;23.50;;;18.00;;
16669;SDS011;8448;52.034;5.158;2022-09-11T01:03:59;21.42;;;16.25;;
16669;SDS011;8448;52.034;5.158;2022-09-11T01:06:29;21.50;;;15.88;;
16669;SDS011;8448;52.034;5.158;2022-09-11T01:08:58;20.80;;;16.75;;
16669;SDS011;8448;52.034;5.158;2022-09-11T01:11:30;21.00;;;16.85;;
16669;SDS011;8448;52.034;5.158;2022-09-11T01:14:08;24.55;;;17.98;;
16669;SDS011;8448;52.034;5.158;2022-09-11T01:16:43;23.33;;;19.17;;
16669;SDS011;8448;52.034;5.158;2022-09-11T01:19:22;27.10;;;19.35;;
16669;SDS011;8448;52.034;5.158;2022-09-11T01:22:04;26.65;;;18.65;;
16669;SDS011;8448;52.034;5.158;2022-09-11T01:24:51;27.75;;;18.13;;
16669;SDS011;8448;52.034;5.158;2022-09-11T01:27:29;25.40;;;18.65;;
16669;SDS011;8448;52.034;5.158;2022-09-11T01:30:04;26.17;;;19.00;;
16669;SDS011;8448;52.034;5.158;2022-09-11T01:32:34;25.30;;;18.05;;
16669;SDS011;8448;52.034;5.158;2022-09-11T01:35:09;23.20;;;18.02;;
16669;SDS011;8448;52.034;5.158;2022-09-11T01:37:39;27.70;;;18.05;;
16669;SDS011;8448;52.034;5.158;2022-09-11T01:40:09;26.75;;;18.17;;
16669;SDS011;8448;52.034;5.158;2022-09-11T01:42:42;22.98;;;17.45;;
16669;SDS011;8448;52.034;5.158;2022-09-11T01:45:10;24.73;;;18.45;;
16669;SDS011;8448;52.034;5.158;2022-09-11T01:47:40;26.13;;;18.80;;
16669;SDS011;8448;52.034;5.158;2022-09-11T01:50:10;26.60;;;18.98;;
16669;SDS011;8448;52.034;5.158;2022-09-11T01:52:40;26.73;;;20.45;;
16669;SDS011;8448;52.034;5.158;2022-09-11T01:55:11;25.45;;;19.42;;
16669;SDS011;8448;52.034;5.158;2022-09-11T01:57:43;25.17;;;18.98;;
16669;SDS011;8448;52.034;5.158;2022-09-11T02:00:14;24.65;;;18.70;;
16669;SDS011;8448;52.034;5.158;2022-09-11T02:02:49;24.50;;;18.40;;
16669;SDS011;8448;52.034;5.158;2022-09-11T02:05:20;24.00;;;17.85;;
16669;SDS011;8448;52.034;5.158;2022-09-11T02:07:53;27.60;;;19.55;;
16669;SDS011;8448;52.034;5.158;2022-09-11T02:10:24;24.65;;;18.23;;
16669;SDS011;8448;52.034;5.158;2022-09-11T02:12:56;25.75;;;18.90;;
16669;SDS011;8448;52.034;5.158;2022-09-11T02:15:29;25.27;;;18.88;;
16669;SDS011;8448;52.034;5.158;2022-09-11T02:18:06;26.48;;;18.67;;
16669;SDS011;8448;52.034;5.158;2022-09-11T02:20:40;26.92;;;19.45;;
16669;SDS011;8448;52.034;5.158;2022-09-11T02:23:09;27.42;;;20.17;;
16669;SDS011;8448;52.034;5.158;2022-09-11T02:25:36;27.60;;;19.90;;
16669;SDS011;8448;52.034;5.158;2022-09-11T02:28:05;28.70;;;21.10;;
16669;SDS011;8448;52.034;5.158;2022-09-11T02:30:33;30.33;;;21.15;;
16669;SDS011;8448;52.034;5.158;2022-09-11T02:33:00;29.45;;;20.15;;
16669;SDS011;8448;52.034;5.158;2022-09-11T02:35:34;28.67;;;20.92;;
16669;SDS011;8448;52.034;5.158;2022-09-11T02:38:06;28.08;;;20.70;;
16669;SDS011;8448;52.034;5.158;2022-09-11T02:40:41;28.75;;;20.30;;
16669;SDS011;8448;52.034;5.158;2022-09-11T02:43:20;28.40;;;21.15;;
16669;SDS011;8448;52.034;5.158;2022-09-11T02:46:02;30.95;;;21.73;;
16669;SDS011;8448;52.034;5.158;2022-09-11T02:48:52;35.13;;;23.40;;
16669;SDS011;8448;52.034;5.158;2022-09-11T02:51:25;29.17;;;20.73;;
16669;SDS011;8448;52.034;5.158;2022-09-11T02:53:57;30.83;;;21.35;;
16669;SDS011;8448;52.034;5.158;2022-09-11T02:56:30;31.40;;;22.92;;
16669;SDS011;8448;52.034;5.158;2022-09-11T02:59:06;29.67;;;21.63;;
16669;SDS011;8448;52.034;5.158;2022-09-11T03:01:44;33.27;;;23.33;;
16669;SDS011;8448;52.034;5.158;2022-09-11T03:04:12;30.77;;;22.63;;
16669;SDS011;8448;52.034;5.158;2022-09-11T03:06:44;33.53;;;22.00;;
16669;SDS011;8448;52.034;5.158;2022-09-11T03:09:13;30.17;;;21.92;;
16669;SDS011;8448;52.034;5.158;2022-09-11T03:11:41;31.43;;;21.97;;
16669;SDS011;8448;52.034;5.158;2022-09-11T03:14:10;30.47;;;22.03;;
16669;SDS011;8448;52.034;5.158;2022-09-11T03:16:38;32.13;;;22.67;;
16669;SDS011;8448;52.034;5.158;2022-09-11T03:19:06;30.67;;;21.43;;
16669;SDS011;8448;52.034;5.158;2022-09-11T03:21:34;31.63;;;22.40;;
16669;SDS011;8448;52.034;5.158;2022-09-11T03:24:01;34.50;;;23.83;;
16669;SDS011;8448;52.034;5.158;2022-09-11T03:26:29;33.78;;;23.65;;
16669;SDS011;8448;52.034;5.158;2022-09-11T03:28:58;29.70;;;22.20;;
16669;SDS011;8448;52.034;5.158;2022-09-11T03:31:27;33.67;;;22.93;;
16669;SDS011;8448;52.034;5.158;2022-09-11T03:33:55;31.02;;;22.30;;
16669;SDS011;8448;52.034;5.158;2022-09-11T03:36:22;33.60;;;23.55;;
16669;SDS011;8448;52.034;5.158;2022-09-11T03:38:51;32.00;;;22.07;;
16669;SDS011;8448;52.034;5.158;2022-09-11T03:41:19;30.97;;;21.87;;
16669;SDS011;8448;52.034;5.158;2022-09-11T03:43:47;29.40;;;21.23;;
16669;SDS011;8448;52.034;5.158;2022-09-11T03:46:14;39.45;;;23.17;;
16669;SDS011;8448;52.034;5.158;2022-09-11T03:48:43;28.93;;;21.07;;
16669;SDS011;8448;52.034;5.158;2022-09-11T03:51:11;31.27;;;21.70;;
16669;SDS011;8448;52.034;5.158;2022-09-11T03:53:39;32.03;;;22.67;;
16669;SDS011;8448;52.034;5.158;2022-09-11T03:56:07;31.00;;;22.23;;
16669;SDS011;8448;52.034;5.158;2022-09-11T03:58:40;30.90;;;21.93;;
16669;SDS011;8448;52.034;5.158;2022-09-11T04:01:09;32.37;;;22.80;;
16669;SDS011;8448;52.034;5.158;2022-09-11T04:03:38;29.13;;;20.73;;
16669;SDS011;8448;52.034;5.158;2022-09-11T04:06:10;32.00;;;22.17;;
16669;SDS011;8448;52.034;5.158;2022-09-11T04:08:38;31.43;;;22.17;;
16669;SDS011;8448;52.034;5.158;2022-09-11T04:11:09;28.10;;;20.67;;
16669;SDS011;8448;52.034;5.158;2022-09-11T04:13:37;29.27;;;20.87;;
16669;SDS011;8448;52.034;5.158;2022-09-11T04:16:09;29.10;;;20.73;;
16669;SDS011;8448;52.034;5.158;2022-09-11T04:18:40;28.70;;;20.40;;
16669;SDS011;8448;52.034;5.158;2022-09-11T04:21:09;31.87;;;20.87;;
16669;SDS011;8448;52.034;5.158;2022-09-11T04:23:38;28.50;;;19.87;;
16669;SDS011;8448;52.034;5.158;2022-09-11T04:26:11;29.67;;;21.67;;
16669;SDS011;8448;52.034;5.158;2022-09-11T04:28:40;32.33;;;21.80;;
16669;SDS011;8448;52.034;5.158;2022-09-11T04:31:10;33.80;;;21.23;;
16669;SDS011;8448;52.034;5.158;2022-09-11T04:33:39;30.97;;;21.90;;
16669;SDS011;8448;52.034;5.158;2022-09-11T04:36:07;31.70;;;21.57;;
16669;SDS011;8448;52.034;5.158;2022-09-11T04:38:37;31.47;;;21.83;;
16669;SDS011;8448;52.034;5.158;2022-09-11T04:41:07;31.60;;;20.67;;
16669;SDS011;8448;52.034;5.158;2022-09-11T04:43:35;28.60;;;21.00;;
16669;SDS011;8448;52.034;5.158;2022-09-11T04:46:04;29.00;;;20.40;;
16669;SDS011;8448;52.034;5.158;2022-09-11T04:48:33;31.03;;;22.70;;
16669;SDS011;8448;52.034;5.158;2022-09-11T04:51:03;33.13;;;22.33;;
16669;SDS011;8448;52.034;5.158;2022-09-11T04:53:31;31.83;;;22.47;;
16669;SDS011;8448;52.034;5.158;2022-09-11T04:56:03;33.57;;;22.23;;
16669;SDS011;8448;52.034;5.158;2022-09-11T04:58:39;31.53;;;22.20;;
16669;SDS011;8448;52.034;5.158;2022-09-11T05:01:08;30.73;;;21.83;;
16669;SDS011;8448;52.034;5.158;2022-09-11T05:03:37;28.00;;;20.40;;
16669;SDS011;8448;52.034;5.158;2022-09-11T05:06:05;30.00;;;21.40;;
16669;SDS011;8448;52.034;5.158;2022-09-11T05:08:33;30.90;;;20.57;;
16669;SDS011;8448;52.034;5.158;2022-09-11T05:11:03;30.20;;;21.23;;
16669;SDS011;8448;52.034;5.158;2022-09-11T05:13:32;31.70;;;21.90;;
16669;SDS011;8448;52.034;5.158;2022-09-11T05:16:00;29.23;;;21.03;;
16669;SDS011;8448;52.034;5.158;2022-09-11T05:18:28;30.60;;;20.60;;
16669;SDS011;8448;52.034;5.158;2022-09-11T05:20:58;31.17;;;21.43;;
16669;SDS011;8448;52.034;5.158;2022-09-11T05:23:27;31.77;;;21.00;;
16669;SDS011;8448;52.034;5.158;2022-09-11T05:25:57;32.67;;;22.00;;
16669;SDS011;8448;52.034;5.158;2022-09-11T05:28:28;31.10;;;21.43;;
16669;SDS011;8448;52.034;5.158;2022-09-11T05:30:56;30.23;;;20.67;;
16669;SDS011;8448;52.034;5.158;2022-09-11T05:33:25;30.80;;;21.20;;
16669;SDS011;8448;52.034;5.158;2022-09-11T05:35:54;32.47;;;20.57;;
16669;SDS011;8448;52.034;5.158;2022-09-11T05:38:28;31.43;;;21.30;;
16669;SDS011;8448;52.034;5.158;2022-09-11T05:40:55;31.23;;;21.13;;
16669;SDS011;8448;52.034;5.158;2022-09-11T05:43:22;33.20;;;22.20;;
16669;SDS011;8448;52.034;5.158;2022-09-11T05:45:56;32.67;;;22.27;;
16669;SDS011;8448;52.034;5.158;2022-09-11T05:48:26;32.83;;;22.17;;
16669;SDS011;8448;52.034;5.158;2022-09-11T05:50:56;31.17;;;20.97;;
16669;SDS011;8448;52.034;5.158;2022-09-11T05:53:25;41.03;;;25.37;;
16669;SDS011;8448;52.034;5.158;2022-09-11T05:55:54;37.43;;;24.33;;
16669;SDS011;8448;52.034;5.158;2022-09-11T05:58:22;43.00;;;26.63;;
16669;SDS011;8448;52.034;5.158;2022-09-11T06:00:50;40.50;;;26.73;;
16669;SDS011;8448;52.034;5.158;2022-09-11T06:03:19;39.97;;;26.00;;
16669;SDS011;8448;52.034;5.158;2022-09-11T06:05:46;42.83;;;27.40;;
16669;SDS011;8448;52.034;5.158;2022-09-11T06:08:15;45.53;;;28.83;;
16669;SDS011;8448;52.034;5.158;2022-09-11T06:10:44;48.33;;;29.00;;
16669;SDS011;8448;52.034;5.158;2022-09-11T06:13:12;41.47;;;27.33;;
16669;SDS011;8448;52.034;5.158;2022-09-11T06:15:43;42.20;;;26.97;;
16669;SDS011;8448;52.034;5.158;2022-09-11T06:18:11;37.80;;;25.53;;
16669;SDS011;8448;52.034;5.158;2022-09-11T06:20:40;40.07;;;25.47;;
16669;SDS011;8448;52.034;5.158;2022-09-11T06:23:14;40.13;;;25.00;;
16669;SDS011;8448;52.034;5.158;2022-09-11T06:25:42;37.30;;;24.77;;
16669;SDS011;8448;52.034;5.158;2022-09-11T06:28:11;41.43;;;26.10;;
16669;SDS011;8448;52.034;5.158;2022-09-11T06:30:39;35.47;;;24.20;;
16669;SDS011;8448;52.034;5.158;2022-09-11T06:33:08;34.10;;;24.23;;
16669;SDS011;8448;52.034;5.158;2022-09-11T06:35:35;33.07;;;22.73;;
16669;SDS011;8448;52.034;5.158;2022-09-11T06:38:04;32.80;;;23.30;;
16669;SDS011;8448;52.034;5.158;2022-09-11T06:40:31;32.87;;;22.47;;
16669;SDS011;8448;52.034;5.158;2022-09-11T06:43:01;33.17;;;23.07;;
16669;SDS011;8448;52.034;5.158;2022-09-11T06:45:29;33.13;;;22.63;;
16669;SDS011;8448;52.034;5.158;2022-09-11T06:47:58;35.80;;;24.53;;
16669;SDS011;8448;52.034;5.158;2022-09-11T06:50:28;39.30;;;27.35;;
16669;SDS011;8448;52.034;5.158;2022-09-11T06:53:05;34.80;;;25.00;;
16669;SDS011;8448;52.034;5.158;2022-09-11T06:55:35;40.47;;;27.35;;
16669;SDS011;8448;52.034;5.158;2022-09-11T06:58:06;43.42;;;27.98;;
16669;SDS011;8448;52.034;5.158;2022-09-11T07:00:34;36.80;;;24.90;;
16669;SDS011;8448;52.034;5.158;2022-09-11T07:03:02;37.15;;;25.60;;
16669;SDS011;8448;52.034;5.158;2022-09-11T07:05:30;36.15;;;25.75;;
16669;SDS011;8448;52.034;5.158;2022-09-11T07:07:59;37.42;;;25.13;;
16669;SDS011;8448;52.034;5.158;2022-09-11T07:10:32;38.80;;;26.75;;
16669;SDS011;8448;52.034;5.158;2022-09-11T07:13:00;37.72;;;26.85;;
16669;SDS011;8448;52.034;5.158;2022-09-11T07:15:29;42.85;;;28.38;;
16669;SDS011;8448;52.034;5.158;2022-09-11T07:17:57;39.30;;;27.75;;
16669;SDS011;8448;52.034;5.158;2022-09-11T07:20:26;36.95;;;25.73;;
16669;SDS011;8448;52.034;5.158;2022-09-11T07:22:54;39.00;;;26.88;;
16669;SDS011;8448;52.034;5.158;2022-09-11T07:25:22;41.40;;;28.83;;
16669;SDS011;8448;52.034;5.158;2022-09-11T07:27:51;34.78;;;25.33;;
16669;SDS011;8448;52.034;5.158;2022-09-11T07:30:19;33.78;;;24.50;;
16669;SDS011;8448;52.034;5.158;2022-09-11T07:32:50;28.52;;;21.75;;
16669;SDS011;8448;52.034;5.158;2022-09-11T07:35:18;33.13;;;24.80;;
16669;SDS011;8448;52.034;5.158;2022-09-11T07:37:47;31.75;;;24.45;;
16669;SDS011;8448;52.034;5.158;2022-09-11T07:40:16;30.83;;;23.70;;
16669;SDS011;8448;52.034;5.158;2022-09-11T07:42:44;33.03;;;25.38;;
16669;SDS011;8448;52.034;5.158;2022-09-11T07:45:13;30.45;;;22.83;;
16669;SDS011;8448;52.034;5.158;2022-09-11T07:47:41;34.45;;;24.05;;
16669;SDS011;8448;52.034;5.158;2022-09-11T07:50:08;28.40;;;21.50;;
16669;SDS011;8448;52.034;5.158;2022-09-11T07:52:36;30.67;;;22.95;;
16669;SDS011;8448;52.034;5.158;2022-09-11T07:55:05;28.15;;;20.67;;
16669;SDS011;8448;52.034;5.158;2022-09-11T07:57:34;28.48;;;22.10;;
16669;SDS011;8448;52.034;5.158;2022-09-11T08:00:06;24.67;;;19.02;;
16669;SDS011;8448;52.034;5.158;2022-09-11T08:02:47;21.00;;;17.85;;
16669;SDS011;8448;52.034;5.158;2022-09-11T08:05:25;22.35;;;18.27;;
16669;SDS011;8448;52.034;5.158;2022-09-11T08:07:53;21.48;;;17.30;;
16669;SDS011;8448;52.034;5.158;2022-09-11T08:10:21;17.67;;;14.98;;
16669;SDS011;8448;52.034;5.158;2022-09-11T08:12:49;23.80;;;18.45;;
16669;SDS011;8448;52.034;5.158;2022-09-11T08:15:16;16.98;;;14.75;;
16669;SDS011;8448;52.034;5.158;2022-09-11T08:17:48;21.45;;;16.52;;
16669;SDS011;8448;52.034;5.158;2022-09-11T08:20:16;16.77;;;13.40;;
16669;SDS011;8448;52.034;5.158;2022-09-11T08:22:44;19.80;;;15.23;;
16669;SDS011;8448;52.034;5.158;2022-09-11T08:25:11;15.50;;;12.77;;
16669;SDS011;8448;52.034;5.158;2022-09-11T08:27:39;14.07;;;12.10;;
16669;SDS011;8448;52.034;5.158;2022-09-11T08:30:07;11.13;;;9.93;;
16669;SDS011;8448;52.034;5.158;2022-09-11T08:32:35;10.57;;;9.25;;
16669;SDS011;8448;52.034;5.158;2022-09-11T08:35:25;11.75;;;10.20;;
16669;SDS011;8448;52.034;5.158;2022-09-11T08:37:53;9.27;;;8.20;;
16669;SDS011;8448;52.034;5.158;2022-09-11T08:40:20;8.43;;;6.97;;
16669;SDS011;8448;52.034;5.158;2022-09-11T08:42:47;8.35;;;6.53;;
16669;SDS011;8448;52.034;5.158;2022-09-11T08:45:17;7.35;;;6.28;;
16669;SDS011;8448;52.034;5.158;2022-09-11T08:47:47;8.43;;;6.57;;
16669;SDS011;8448;52.034;5.158;2022-09-11T08:50:17;10.10;;;8.02;;
16669;SDS011;8448;52.034;5.158;2022-09-11T08:52:47;11.48;;;8.27;;
16669;SDS011;8448;52.034;5.158;2022-09-11T08:55:19;7.93;;;6.35;;
16669;SDS011;8448;52.034;5.158;2022-09-11T08:57:52;8.32;;;6.72;;
16669;SDS011;8448;52.034;5.158;2022-09-11T09:00:26;8.32;;;7.40;;
16669;SDS011;8448;52.034;5.158;2022-09-11T09:03:08;11.02;;;8.52;;
16669;SDS011;8448;52.034;5.158;2022-09-11T09:05:47;7.70;;;6.85;;
16669;SDS011;8448;52.034;5.158;2022-09-11T09:08:23;6.80;;;5.93;;
16669;SDS011;8448;52.034;5.158;2022-09-11T09:11:03;9.30;;;8.25;;
16669;SDS011;8448;52.034;5.158;2022-09-11T09:13:38;8.73;;;7.43;;
16669;SDS011;8448;52.034;5.158;2022-09-11T09:16:16;9.70;;;6.20;;
16669;SDS011;8448;52.034;5.158;2022-09-11T09:18:51;6.40;;;5.43;;
16669;SDS011;8448;52.034;5.158;2022-09-11T09:21:25;6.68;;;4.95;;
16669;SDS011;8448;52.034;5.158;2022-09-11T09:23:58;8.23;;;6.40;;
16669;SDS011;8448;52.034;5.158;2022-09-11T09:26:28;9.25;;;6.40;;
16669;SDS011;8448;52.034;5.158;2022-09-11T09:28:58;6.55;;;5.45;;
16669;SDS011;8448;52.034;5.158;2022-09-11T09:31:30;8.05;;;6.45;;
16669;SDS011;8448;52.034;5.158;2022-09-11T09:34:03;9.02;;;6.97;;
16669;SDS011;8448;52.034;5.158;2022-09-11T09:36:35;8.45;;;6.95;;
16669;SDS011;8448;52.034;5.158;2022-09-11T09:39:11;9.07;;;6.60;;
16669;SDS011;8448;52.034;5.158;2022-09-11T09:41:42;9.75;;;7.32;;
16669;SDS011;8448;52.034;5.158;2022-09-11T09:44:26;9.88;;;7.38;;
16669;SDS011;8448;52.034;5.158;2022-09-11T09:47:01;7.15;;;6.43;;
16669;SDS011;8448;52.034;5.158;2022-09-11T09:49:28;9.77;;;7.25;;
16669;SDS011;8448;52.034;5.158;2022-09-11T09:51:58;10.40;;;7.40;;
16669;SDS011;8448;52.034;5.158;2022-09-11T09:54:29;8.02;;;6.50;;
16669;SDS011;8448;52.034;5.158;2022-09-11T09:56:59;6.90;;;6.07;;
16669;SDS011;8448;52.034;5.158;2022-09-11T09:59:29;7.82;;;6.45;;
16669;SDS011;8448;52.034;5.158;2022-09-11T10:01:59;8.02;;;6.65;;
16669;SDS011;8448;52.034;5.158;2022-09-11T10:04:27;7.47;;;6.65;;
16669;SDS011;8448;52.034;5.158;2022-09-11T10:07:04;6.93;;;6.05;;
16669;SDS011;8448;52.034;5.158;2022-09-11T10:09:33;7.63;;;6.60;;
16669;SDS011;8448;52.034;5.158;2022-09-11T10:12:02;6.07;;;5.15;;
16669;SDS011;8448;52.034;5.158;2022-09-11T10:14:31;7.25;;;5.75;;
16669;SDS011;8448;52.034;5.158;2022-09-11T10:17:00;6.78;;;5.00;;
16669;SDS011;8448;52.034;5.158;2022-09-11T10:19:35;7.55;;;6.55;;
16669;SDS011;8448;52.034;5.158;2022-09-11T10:22:19;7.97;;;6.90;;
16669;SDS011;8448;52.034;5.158;2022-09-11T10:25:00;8.07;;;6.97;;
16669;SDS011;8448;52.034;5.158;2022-09-11T10:27:30;7.25;;;6.05;;
16669;SDS011;8448;52.034;5.158;2022-09-11T10:29:59;9.75;;;7.78;;
16669;SDS011;8448;52.034;5.158;2022-09-11T10:32:27;7.00;;;5.90;;
16669;SDS011;8448;52.034;5.158;2022-09-11T10:34:55;9.98;;;6.78;;
16669;SDS011;8448;52.034;5.158;2022-09-11T10:37:24;5.95;;;4.60;;
16669;SDS011;8448;52.034;5.158;2022-09-11T10:39:55;7.30;;;4.45;;
16669;SDS011;8448;52.034;5.158;2022-09-11T10:42:29;6.45;;;4.53;;
16669;SDS011;8448;52.034;5.158;2022-09-11T10:45:04;6.10;;;4.97;;
16669;SDS011;8448;52.034;5.158;2022-09-11T10:47:34;6.53;;;5.40;;
16669;SDS011;8448;52.034;5.158;2022-09-11T10:50:17;6.97;;;5.07;;
16669;SDS011;8448;52.034;5.158;2022-09-11T10:52:47;9.73;;;7.20;;
16669;SDS011;8448;52.034;5.158;2022-09-11T10:55:26;8.18;;;6.03;;
16669;SDS011;8448;52.034;5.158;2022-09-11T10:57:56;6.68;;;5.97;;
16669;SDS011;8448;52.034;5.158;2022-09-11T11:00:29;7.00;;;4.90;;
16669;SDS011;8448;52.034;5.158;2022-09-11T11:02:59;4.80;;;4.30;;
16669;SDS011;8448;52.034;5.158;2022-09-11T11:05:31;7.70;;;6.82;;
16669;SDS011;8448;52.034;5.158;2022-09-11T11:08:13;7.75;;;6.15;;
16669;SDS011;8448;52.034;5.158;2022-09-11T11:10:55;6.25;;;5.65;;
16669;SDS011;8448;52.034;5.158;2022-09-11T11:16:20;7.45;;;5.38;;
16669;SDS011;8448;52.034;5.158;2022-09-11T11:18:57;12.15;;;6.45;;
16669;SDS011;8448;52.034;5.158;2022-09-11T11:21:36;5.55;;;5.00;;
16669;SDS011;8448;52.034;5.158;2022-09-11T11:24:13;6.20;;;5.25;;
16669;SDS011;8448;52.034;5.158;2022-09-11T11:26:54;6.03;;;5.03;;
16669;SDS011;8448;52.034;5.158;2022-09-11T11:29:27;8.27;;;5.05;;
16669;SDS011;8448;52.034;5.158;2022-09-11T11:32:11;7.18;;;6.20;;
16669;SDS011;8448;52.034;5.158;2022-09-11T11:34:53;7.90;;;4.97;;
16669;SDS011;8448;52.034;5.158;2022-09-11T11:37:30;6.05;;;4.72;;
16669;SDS011;8448;52.034;5.158;2022-09-11T11:40:00;7.10;;;5.22;;
16669;SDS011;8448;52.034;5.158;2022-09-11T11:42:33;6.32;;;5.20;;
16669;SDS011;8448;52.034;5.158;2022-09-11T11:45:04;6.22;;;4.53;;
16669;SDS011;8448;52.034;5.158;2022-09-11T11:47:36;4.78;;;4.22;;
16669;SDS011;8448;52.034;5.158;2022-09-11T11:50:08;4.47;;;4.00;;
16669;SDS011;8448;52.034;5.158;2022-09-11T11:52:45;6.57;;;4.43;;
16669;SDS011;8448;52.034;5.158;2022-09-11T11:55:17;6.25;;;4.10;;
16669;SDS011;8448;52.034;5.158;2022-09-11T11:57:48;5.47;;;4.30;;
16669;SDS011;8448;52.034;5.158;2022-09-11T12:00:20;4.75;;;3.38;;
16669;SDS011;8448;52.034;5.158;2022-09-11T12:02:50;5.10;;;4.45;;
16669;SDS011;8448;52.034;5.158;2022-09-11T12:05:20;5.40;;;3.60;;
16669;SDS011;8448;52.034;5.158;2022-09-11T12:07:49;4.35;;;3.50;;
16669;SDS011;8448;52.034;5.158;2022-09-11T12:10:18;4.95;;;3.38;;
16669;SDS011;8448;52.034;5.158;2022-09-11T12:12:54;3.80;;;3.40;;
16669;SDS011;8448;52.034;5.158;2022-09-11T12:15:24;5.68;;;4.35;;
16669;SDS011;8448;52.034;5.158;2022-09-11T12:18:03;4.53;;;3.92;;
16669;SDS011;8448;52.034;5.158;2022-09-11T12:20:41;6.03;;;3.75;;
16669;SDS011;8448;52.034;5.158;2022-09-11T12:26:14;5.15;;;3.13;;
16669;SDS011;8448;52.034;5.158;2022-09-11T12:28:44;3.53;;;2.30;;
16669;SDS011;8448;52.034;5.158;2022-09-11T12:31:12;4.63;;;3.13;;
16669;SDS011;8448;52.034;5.158;2022-09-11T12:33:50;4.50;;;2.60;;
16669;SDS011;8448;52.034;5.158;2022-09-11T12:36:20;6.82;;;4.25;;
16669;SDS011;8448;52.034;5.158;2022-09-11T12:39:15;3.88;;;2.70;;
16669;SDS011;8448;52.034;5.158;2022-09-11T12:41:48;2.28;;;2.08;;
16669;SDS011;8448;52.034;5.158;2022-09-11T12:44:28;4.38;;;3.22;;
16669;SDS011;8448;52.034;5.158;2022-09-11T12:47:06;4.25;;;3.05;;
16669;SDS011;8448;52.034;5.158;2022-09-11T12:49:41;2.50;;;2.28;;
16669;SDS011;8448;52.034;5.158;2022-09-11T12:55:06;3.80;;;2.15;;
16669;SDS011;8448;52.034;5.158;2022-09-11T12:57:49;3.10;;;2.80;;
16669;SDS011;8448;52.034;5.158;2022-09-11T13:00:21;4.00;;;3.28;;
16669;SDS011;8448;52.034;5.158;2022-09-11T13:02:54;3.75;;;2.90;;
16669;SDS011;8448;52.034;5.158;2022-09-11T13:05:24;4.20;;;2.55;;
16669;SDS011;8448;52.034;5.158;2022-09-11T13:07:52;2.80;;;2.15;;
16669;SDS011;8448;52.034;5.158;2022-09-11T13:10:25;3.70;;;2.70;;
16669;SDS011;8448;52.034;5.158;2022-09-11T13:12:58;3.10;;;2.22;;
16669;SDS011;8448;52.034;5.158;2022-09-11T13:15:35;3.05;;;2.03;;
16669;SDS011;8448;52.034;5.158;2022-09-11T13:18:23;3.25;;;2.70;;
16669;SDS011;8448;52.034;5.158;2022-09-11T13:20:56;4.13;;;2.42;;
16669;SDS011;8448;52.034;5.158;2022-09-11T13:23:24;5.60;;;2.80;;
16669;SDS011;8448;52.034;5.158;2022-09-11T13:25:52;4.25;;;2.30;;
16669;SDS011;8448;52.034;5.158;2022-09-11T13:28:22;3.17;;;2.40;;
16669;SDS011;8448;52.034;5.158;2022-09-11T13:30:53;3.50;;;2.10;;
16669;SDS011;8448;52.034;5.158;2022-09-11T13:33:24;3.22;;;2.15;;
16669;SDS011;8448;52.034;5.158;2022-09-11T13:35:54;2.65;;;1.90;;
16669;SDS011;8448;52.034;5.158;2022-09-11T13:38:23;1.83;;;1.67;;
16669;SDS011;8448;52.034;5.158;2022-09-11T13:40:54;2.28;;;1.63;;
16669;SDS011;8448;52.034;5.158;2022-09-11T13:43:23;2.50;;;2.03;;
16669;SDS011;8448;52.034;5.158;2022-09-11T13:48:46;2.40;;;1.73;;
16669;SDS011;8448;52.034;5.158;2022-09-11T13:51:15;3.30;;;2.33;;
16669;SDS011;8448;52.034;5.158;2022-09-11T13:53:44;3.88;;;2.00;;
16669;SDS011;8448;52.034;5.158;2022-09-11T13:56:18;4.30;;;2.05;;
16669;SDS011;8448;52.034;5.158;2022-09-11T14:02:17;2.30;;;1.58;;
16669;SDS011;8448;52.034;5.158;2022-09-11T14:04:51;2.92;;;1.77;;
16669;SDS011;8448;52.034;5.158;2022-09-11T14:07:21;2.53;;;1.80;;
16669;SDS011;8448;52.034;5.158;2022-09-11T14:09:52;4.47;;;1.90;;
16669;SDS011;8448;52.034;5.158;2022-09-11T14:12:25;3.05;;;1.77;;
16669;SDS011;8448;52.034;5.158;2022-09-11T14:14:53;3.35;;;1.80;;
16669;SDS011;8448;52.034;5.158;2022-09-11T14:17:25;2.60;;;1.95;;
16669;SDS011;8448;52.034;5.158;2022-09-11T14:19:52;2.58;;;2.00;;
16669;SDS011;8448;52.034;5.158;2022-09-11T14:22:23;2.38;;;2.00;;
16669;SDS011;8448;52.034;5.158;2022-09-11T14:24:54;4.05;;;1.80;;
16669;SDS011;8448;52.034;5.158;2022-09-11T14:27:40;2.72;;;1.90;;
16669;SDS011;8448;52.034;5.158;2022-09-11T14:30:22;2.40;;;2.20;;
16669;SDS011;8448;52.034;5.158;2022-09-11T14:33:13;3.65;;;2.40;;
16669;SDS011;8448;52.034;5.158;2022-09-11T14:35:43;2.17;;;1.90;;
16669;SDS011;8448;52.034;5.158;2022-09-11T14:38:12;3.08;;;2.45;;
16669;SDS011;8448;52.034;5.158;2022-09-11T14:40:42;3.90;;;2.50;;
16669;SDS011;8448;52.034;5.158;2022-09-11T14:43:18;4.22;;;2.40;;
16669;SDS011;8448;52.034;5.158;2022-09-11T14:45:50;3.65;;;2.30;;
16669;SDS011;8448;52.034;5.158;2022-09-11T14:48:20;3.88;;;2.67;;
16669;SDS011;8448;52.034;5.158;2022-09-11T14:50:47;3.17;;;2.53;;
16669;SDS011;8448;52.034;5.158;2022-09-11T14:53:20;3.95;;;2.50;;
16669;SDS011;8448;52.034;5.158;2022-09-11T14:55:54;3.25;;;2.80;;
16669;SDS011;8448;52.034;5.158;2022-09-11T14:58:22;2.58;;;2.28;;
16669;SDS011;8448;52.034;5.158;2022-09-11T15:00:50;3.15;;;2.58;;
16669;SDS011;8448;52.034;5.158;2022-09-11T15:03:17;2.80;;;2.50;;
16669;SDS011;8448;52.034;5.158;2022-09-11T15:05:47;3.78;;;2.30;;
16669;SDS011;8448;52.034;5.158;2022-09-11T15:08:18;3.17;;;2.47;;
16669;SDS011;8448;52.034;5.158;2022-09-11T15:10:45;2.50;;;2.30;;
16669;SDS011;8448;52.034;5.158;2022-09-11T15:13:13;2.50;;;2.17;;
16669;SDS011;8448;52.034;5.158;2022-09-11T15:15:41;4.85;;;2.10;;
16669;SDS011;8448;52.034;5.158;2022-09-11T15:18:08;3.28;;;2.40;;
16669;SDS011;8448;52.034;5.158;2022-09-11T15:20:37;2.30;;;2.10;;
16669;SDS011;8448;52.034;5.158;2022-09-11T15:23:04;2.97;;;2.00;;
16669;SDS011;8448;52.034;5.158;2022-09-11T15:25:32;2.78;;;2.00;;